createdAt,value
2022-11-25T00:06:14.724Z,100319.00
2022-11-25T00:16:14.840Z,100306.00
2022-11-25T00:26:17.781Z,100298.00
2022-11-25T00:36:17.794Z,100290.00
2022-11-25T00:46:17.863Z,100288.00
2022-11-25T00:56:17.884Z,100274.00
2022-11-25T01:06:21.480Z,100270.00
2022-11-25T01:16:21.904Z,100270.00
2022-11-25T01:26:21.890Z,100272.00
2022-11-25T01:36:21.871Z,100270.00
2022-11-25T01:46:21.994Z,100268.00
2022-11-25T01:56:21.919Z,100264.00
2022-11-25T02:06:23.562Z,100264.00
2022-11-25T02:16:24.024Z,100264.00
2022-11-25T02:26:24.444Z,100258.00
2022-11-25T02:36:25.105Z,100254.00
2022-11-25T02:46:25.216Z,100244.00
2022-11-25T02:56:25.050Z,100238.00
2022-11-25T03:06:26.211Z,100242.00
2022-11-25T03:16:26.060Z,100234.00
2022-11-25T03:26:26.518Z,100240.00
2022-11-25T03:36:27.288Z,100250.00
2022-11-25T03:46:27.684Z,100248.00
2022-11-25T03:56:28.249Z,100254.00
2022-11-25T04:06:28.815Z,100258.00
2022-11-25T04:16:29.272Z,100264.00
2022-11-25T04:26:29.495Z,100270.00
2022-11-25T04:36:30.150Z,100278.00
2022-11-25T04:46:30.324Z,100292.00
2022-11-25T04:56:30.957Z,100304.00
2022-11-25T05:06:31.390Z,100313.00
2022-11-25T05:16:31.612Z,100317.00
2022-11-25T05:26:33.794Z,100323.00
2022-11-25T05:36:34.379Z,100335.00
2022-11-25T05:46:34.496Z,100341.00
2022-11-25T05:56:42.151Z,100349.00
2022-11-25T06:06:42.476Z,100361.00
2022-11-25T06:16:59.259Z,100370.00
2022-11-25T06:27:19.035Z,100378.00
2022-11-25T06:37:19.175Z,100396.00
2022-11-25T06:47:19.317Z,100410.00
2022-11-25T06:57:19.300Z,100415.00
2022-11-25T07:07:19.274Z,100421.00
2022-11-25T07:17:19.335Z,100435.00
2022-11-25T07:27:19.326Z,100447.00
2022-11-25T07:37:19.388Z,100458.00
2022-11-25T07:47:19.356Z,100472.00
2022-11-25T07:57:19.448Z,100488.00
2022-11-25T08:07:19.400Z,100504.00
2022-11-25T08:17:19.349Z,100515.00
2022-11-25T08:27:19.388Z,100529.00
2022-11-25T08:37:19.398Z,100553.00
2022-11-25T08:47:19.377Z,100571.00
2022-11-25T08:57:19.460Z,100585.00
2022-11-25T09:07:19.585Z,100587.00
2022-11-25T09:17:19.780Z,100590.00
2022-11-25T09:27:19.434Z,100608.00
2022-11-25T09:37:19.498Z,100622.00
2022-11-25T09:47:19.480Z,100632.00
2022-11-25T09:57:19.669Z,100643.00
2022-11-25T10:07:19.521Z,100655.00
2022-11-25T10:17:19.509Z,100661.00
2022-11-25T10:27:19.603Z,100669.00
2022-11-25T10:37:19.517Z,100683.00
2022-11-25T10:47:19.590Z,100688.00
2022-11-25T10:57:19.618Z,100692.00
2022-11-25T11:07:19.631Z,100694.00
2022-11-25T11:17:19.578Z,100706.00
2022-11-25T11:27:19.561Z,100714.00
2022-11-25T11:37:19.677Z,100718.00
2022-11-25T11:47:22.694Z,100724.00
2022-11-25T11:57:22.665Z,100726.00
2022-11-25T12:07:22.792Z,100731.00
2022-11-25T12:17:22.679Z,100745.00
2022-11-25T12:27:22.661Z,100751.00
2022-11-25T12:37:22.787Z,100763.00
2022-11-25T12:47:22.705Z,100775.00
2022-11-25T12:57:22.760Z,100786.00
2022-11-25T13:07:22.887Z,100805.00
2022-11-25T13:17:23.215Z,100815.00
2022-11-25T13:27:23.808Z,100828.00
2022-11-25T13:37:23.844Z,100836.00
2022-11-25T13:47:23.773Z,100850.00
2022-11-25T13:57:23.858Z,100858.00
2022-11-25T14:07:23.833Z,100871.00
2022-11-25T14:17:23.992Z,100875.00
2022-11-25T14:27:23.813Z,100885.00
2022-11-25T14:37:23.924Z,100895.00
2022-11-25T14:47:23.837Z,100903.00
2022-11-25T14:57:23.961Z,100918.00
2022-11-25T15:07:30.830Z,100926.00
2022-11-25T15:17:26.988Z,100938.00
2022-11-25T15:27:26.950Z,100948.00
2022-11-25T15:37:26.923Z,100962.00
2022-11-25T15:47:27.002Z,100979.00
2022-11-25T15:57:26.903Z,101005.00
2022-11-25T16:07:27.142Z,101020.00
2022-11-25T16:17:27.014Z,101036.00
2022-11-25T16:27:27.165Z,101058.00
2022-11-25T16:37:27.130Z,101068.00
2022-11-25T16:47:27.112Z,101080.00
2022-11-25T16:57:27.041Z,101094.00
2022-11-25T17:07:34.684Z,101113.00
2022-11-25T17:17:29.263Z,101133.00
2022-11-25T17:27:30.125Z,101146.00
2022-11-25T17:37:32.172Z,101162.00
2022-11-25T17:47:32.107Z,101184.00
2022-11-25T17:57:32.082Z,101203.00
2022-11-25T18:07:32.207Z,101223.00
2022-11-25T18:17:32.131Z,101242.00
2022-11-25T18:27:32.220Z,101256.00
2022-11-25T18:37:32.169Z,101266.00
2022-11-25T18:47:32.259Z,101284.00
2022-11-25T18:57:32.219Z,101299.00
2022-11-25T19:07:32.209Z,101326.00
2022-11-25T19:17:32.250Z,101339.00
2022-11-25T19:27:32.339Z,101351.00
2022-11-25T19:37:32.171Z,101365.00
2022-11-25T19:47:32.185Z,101378.00
2022-11-25T19:57:32.255Z,101396.00
2022-11-25T20:07:32.416Z,101412.00
2022-11-25T20:17:32.270Z,101424.00
2022-11-25T20:27:33.741Z,101437.00
2022-11-25T20:37:36.228Z,101453.00
2022-11-25T20:47:36.366Z,101474.00
2022-11-25T20:57:36.765Z,101484.00
2022-11-25T21:07:37.415Z,101496.00
2022-11-25T21:17:37.407Z,101508.00
2022-11-25T21:27:37.433Z,101518.00
2022-11-25T21:37:37.336Z,101529.00
2022-11-25T21:47:37.634Z,101543.00
2022-11-25T21:57:37.419Z,101559.00
2022-11-25T22:07:37.502Z,101565.00
2022-11-25T22:17:37.467Z,101583.00
2022-11-25T22:27:37.552Z,101595.00
2022-11-25T22:37:37.467Z,101599.00
2022-11-25T22:47:37.555Z,101616.00
2022-11-25T22:57:37.586Z,101634.00
2022-11-25T23:07:37.562Z,101646.00
2022-11-25T23:17:37.590Z,101661.00
2022-11-25T23:27:37.563Z,101671.00
2022-11-25T23:37:37.610Z,101677.00
2022-11-25T23:47:37.575Z,101689.00
2022-11-25T23:57:37.584Z,101699.00
